Time;durP1;ratioP1;P1;durP2;ratioP2;P2;SDS_P1;SDS_P2;PMS_P1;PMS_P2;Temp;Humidity;BMP_temperature;BMP_pressure;BME280_temperature;BME280_humidity;BME280_pressure;Samples;Min_cycle;Max_cycle;Signal;HPM_P1;HPM_P2
2024/01/08 00:07:42;;;;;;;5.20;2.53;;;;;;;;;;21003859;28;20215;-74
2024/01/08 00:17:44;;;;;;;2.60;2.13;;;;;;;;;;21006715;28;20231;-75
2024/01/08 00:27:47;;;;;;;2.50;2.10;;;;;;;;;;21005850;28;20214;-76
2024/01/08 00:37:49;;;;;;;2.60;2.30;;;;;;;;;;20980825;28;20335;-76
2024/01/08 00:47:51;;;;;;;2.53;2.30;;;;;;;;;;20921498;28;20204;-74
2024/01/08 01:02:29;;;;;;;2.33;2.03;;;;;;;;;;21237124;27;20559;-75
2024/01/08 01:12:32;;;;;;;3.03;2.20;;;;;;;;;;21236298;28;20593;-74
2024/01/08 01:22:34;;;;;;;3.03;2.10;;;;;;;;;;21235999;28;20205;-74
2024/01/08 01:32:36;;;;;;;3.77;2.20;;;;;;;;;;21235307;28;20273;-74
2024/01/08 01:42:38;;;;;;;3.87;2.07;;;;;;;;;;21239444;28;20577;-75
2024/01/08 01:52:41;;;;;;;3.27;2.03;;;2.60;62.60;;;;;;21232938;28;20237;-75
2024/01/08 02:02:44;;;;;;;7.80;2.00;;;;;;;;;;21232250;28;20214;-76
2024/01/08 02:12:46;;;;;;;2.60;2.17;;;;;;;;;;21181033;28;20306;-75
2024/01/08 02:22:48;;;;;;;2.73;2.07;;;;;;;;;;21174586;28;20653;-76
2024/01/08 02:32:50;;;;;;;3.53;2.47;;;;;;;;;;21173689;28;20720;-76
2024/01/08 02:42:53;;;;;;;3.77;2.27;;;;;;;;;;21172639;28;20217;-76
2024/01/08 02:52:55;;;;;;;2.73;2.40;;;;;;;;;;21172755;28;20243;-76
2024/01/08 03:02:57;;;;;;;3.63;2.60;;;;;;;;;;21171117;28;20210;-76
2024/01/08 03:13:00;;;;;;;3.27;2.60;;;;;;;;;;21170051;28;20241;-76
2024/01/08 03:23:02;;;;;;;3.40;2.27;;;;;;;;;;21168683;28;20208;-76
2024/01/08 03:33:04;;;;;;;2.70;2.33;;;;;;;;;;21168269;28;20226;-76
2024/01/08 03:43:07;;;;;;;3.23;2.70;;;;;;;;;;21166524;28;20209;-74
2024/01/08 03:53:09;;;;;;;2.83;2.37;;;;;;;;;;21167199;28;20234;-74
2024/01/08 04:03:13;;;;;;;2.60;2.40;;;2.90;63.60;;;;;;21168898;28;20258;-74
2024/01/08 04:13:15;;;;;;;2.93;2.50;;;;;;;;;;21165082;28;20298;-74
2024/01/08 04:23:17;;;;;;;3.47;2.47;;;;;;;;;;21164945;28;20201;-76
2024/01/08 04:33:19;;;;;;;3.63;2.60;;;;;;;;;;21163357;28;20229;-74
2024/01/08 04:43:22;;;;;;;2.77;2.50;;;;;;;;;;21163259;28;20708;-74
2024/01/08 04:53:24;;;;;;;4.50;3.20;;;;;;;;;;21137302;28;20244;-75
2024/01/08 05:03:26;;;;;;;4.53;3.40;;;;;;;;;;21163017;28;20271;-77
2024/01/08 05:16:46;;;;;;;5.10;3.73;;;;;;;;;;21322831;27;20281;-76
2024/01/08 05:26:48;;;;;;;5.43;3.43;;;;;;;;;;21236429;28;20200;-76
2024/01/08 05:45:49;;;;;;;3.37;2.80;;;;;;;;;;21067908;28;21189;-76
2024/01/08 05:55:51;;;;;;;3.80;2.83;;;;;;;;;;21065978;28;20628;-77
2024/01/08 06:05:53;;;;;;;6.27;3.00;;;;;;;;;;21065834;28;20264;-75
2024/01/08 06:15:55;;;;;;;5.10;3.07;;;;;;;;;;21068889;28;20722;-75
2024/01/08 06:25:58;;;;;;;5.20;3.10;;;;;;;;;;21066072;28;20217;-75
2024/01/08 06:36:00;;;;;;;5.10;2.77;;;;;;;;;;21063634;28;20203;-75
2024/01/08 06:46:03;;;;;;;4.00;2.90;;;;;;;;;;20991638;28;20250;-76
2024/01/08 06:56:05;;;;;;;4.70;2.87;;;;;;;;;;20929552;28;20573;-76
2024/01/08 07:20:43;;;;;;;6.33;3.30;;;;;;;;;;20984732;28;20553;-73
2024/01/08 07:38:59;;;;;;;9.07;3.53;;;;;;;;;;20984632;28;20536;-76
2024/01/08 07:49:01;;;;;;;6.50;3.70;;;;;;;;;;20982172;28;20211;-75
2024/01/08 07:59:04;;;;;;;5.30;3.53;;;;;;;;;;20982698;28;20204;-75
2024/01/08 08:09:06;;;;;;;8.00;3.77;;;;;;;;;;20981943;28;20221;-75
2024/01/08 08:19:08;;;;;;;5.67;3.47;;;;;;;;;;20981204;28;20610;-74
2024/01/08 08:29:11;;;;;;;7.37;4.20;;;;;;;;;;20981018;28;20735;-76
2024/01/08 08:39:16;;;;;;;6.83;4.10;;;;;;;;;;20985855;28;20218;-74
2024/01/08 08:49:18;;;;;;;8.47;4.40;;;;;;;;;;20930145;28;20218;-74
2024/01/08 08:59:21;;;;;;;6.87;4.03;;;;;;;;;;20922723;28;20315;-74
2024/01/08 09:09:23;;;;;;;6.77;4.20;;;;;;;;;;20922448;28;20640;-74
2024/01/08 09:19:25;;;;;;;6.60;4.23;;;;;;;;;;20921291;28;20210;-74
2024/01/08 09:29:27;;;;;;;7.57;4.47;;;;;;;;;;20920348;28;20239;-74
2024/01/08 09:39:30;;;;;;;13.17;4.90;;;;;;;;;;20920363;28;20204;-74
2024/01/08 09:49:33;;;;;;;6.57;4.30;;;;;;;;;;20917753;28;20227;-74
2024/01/08 09:59:36;;;;;;;9.60;5.20;;;;;;;;;;20917429;28;20211;-74
2024/01/08 10:09:38;;;;;;;8.83;5.03;;;;;;;;;;20916988;28;20231;-73
2024/01/08 10:19:41;;;;;;;7.47;4.97;;;;;;;;;;20915512;28;20213;-73
2024/01/08 10:29:44;;;;;;;12.37;6.23;;;;;;;;;;20915691;28;20247;-73
2024/01/08 10:39:47;;;;;;;9.47;4.90;;;;;;;;;;20915575;28;20209;-74
2024/01/08 10:49:56;;;;;;;9.47;5.57;;;0.60;54.00;;;;;;20915273;28;20233;-74
2024/01/08 10:59:59;;;;;;;9.93;5.70;;;0.70;54.50;;;;;;20915896;28;20240;-74
2024/01/08 11:10:03;;;;;;;11.00;5.90;;;0.70;54.50;;;;;;20912456;28;20673;-74
2024/01/08 11:20:41;;;;;;;10.20;6.30;;;0.60;54.70;;;;;;20912760;28;20214;-74
2024/01/08 11:30:44;;;;;;;10.63;6.03;;;;;;;;;;20908884;28;20255;-74
2024/01/08 11:40:46;;;;;;;13.37;6.47;;;;;;;;;;20912707;28;20596;-74
2024/01/08 11:50:48;;;;;;;9.97;5.67;;;;;;;;;;20911134;28;20327;-75
2024/01/08 12:00:50;;;;;;;10.53;6.70;;;;;;;;;;20910442;28;20207;-75
2024/01/08 12:10:53;;;;;;;12.03;6.53;;;0.90;54.40;;;;;;20910074;28;20274;-75
2024/01/08 12:20:55;;;;;;;10.47;5.97;;;;;;;;;;20917331;28;20207;-75
2024/01/08 12:31:01;;;;;;;12.47;6.83;;;;;;;;;;20923648;28;20271;-74
2024/01/08 12:41:04;;;;;;;21.67;7.57;;;;;;;;;;20879703;28;20580;-73
2024/01/08 12:51:09;;;;;;;12.57;7.50;;;;;;;;;;20885295;28;20250;-70
2024/01/08 13:01:11;;;;;;;12.13;7.13;;;;;;;;;;20881817;28;20238;-73
2024/01/08 13:11:13;;;;;;;14.30;7.30;;;;;;;;;;20856084;28;20250;-76
2024/01/08 13:21:15;;;;;;;17.77;7.93;;;;;;;;;;20875176;28;20318;-76
2024/01/08 13:31:18;;;;;;;17.30;8.17;;;;;;;;;;20884604;28;20236;-78
2024/01/08 13:41:20;;;;;;;13.93;6.87;;;;;;;;;;20864487;28;20204;-76
2024/01/08 13:51:22;;;;;;;13.97;7.37;;;;;;;;;;20842648;28;20240;-76
2024/01/08 14:01:24;;;;;;;11.60;7.00;;;;;;;;;;20835914;28;20636;-75
2024/01/08 14:11:27;;;;;;;13.27;6.90;;;;;;;;;;20835011;28;20240;-75
2024/01/08 14:21:29;;;;;;;13.43;7.23;;;;;;;;;;20833542;28;20652;-74
2024/01/08 14:31:31;;;;;;;11.57;6.60;;;;;;;;;;20853988;28;20240;-78
2024/01/08 14:41:33;;;;;;;17.40;9.40;;;;;;;;;;20847013;28;20210;-72
2024/01/08 14:51:36;;;;;;;15.07;8.03;;;;;;;;;;20914545;28;20238;-70
2024/01/08 15:01:39;;;;;;;15.20;7.50;;;;;;;;;;20887362;28;20210;-71
2024/01/08 15:11:41;;;;;;;14.43;7.50;;;;;;;;;;20830279;28;20235;-75
2024/01/08 15:21:46;;;;;;;14.93;7.53;;;;;;;;;;20830644;28;20213;-76
2024/01/08 15:31:48;;;;;;;14.83;7.40;;;;;;;;;;20841758;28;20334;-72
2024/01/08 15:41:51;;;;;;;13.80;7.40;;;;;;;;;;20855373;28;20243;-75
2024/01/08 15:51:53;;;;;;;13.43;7.07;;;;;;;;;;20838312;28;20261;-75
2024/01/08 16:01:55;;;;;;;13.47;7.13;;;;;;;;;;20850828;28;20214;-75
2024/01/08 16:11:58;;;;;;;11.37;6.73;;;;;;;;;;20921392;28;20240;-74
2024/01/08 16:22:01;;;;;;;13.53;7.33;;;;;;;;;;20895678;28;20245;-75
2024/01/08 16:32:03;;;;;;;14.37;7.47;;;;;;;;;;20845683;28;20286;-75
2024/01/08 16:42:05;;;;;;;12.37;6.70;;;;;;;;;;20879078;28;20272;-74
2024/01/08 17:00:32;;;;;;;15.50;7.90;;;;;;;;;;21071947;27;20571;-74
2024/01/08 17:10:35;;;;;;;15.90;7.50;;;;;;;;;;20983202;28;20243;-74
2024/01/08 17:20:37;;;;;;;15.20;7.40;;;;;;;;;;20953753;28;20286;-71
2024/01/08 17:30:39;;;;;;;13.93;8.27;;;;;;;;;;20981826;28;20300;-71
2024/01/08 17:40:41;;;;;;;11.93;6.80;;;;;;;;;;20980835;28;20299;-71
2024/01/08 17:50:44;;;;;;;12.77;6.93;;;;;;;;;;20980115;28;20216;-69
2024/01/08 18:00:46;;;;;;;12.63;6.87;;;;;;;;;;20979291;28;20214;-70
2024/01/08 18:10:49;;;;;;;16.80;7.57;;;;;;;;;;20930594;28;20260;-75
2024/01/08 18:20:51;;;;;;;16.50;8.50;;;;;;;;;;20923963;28;20301;-72
2024/01/08 18:30:55;;;;;;;16.87;8.50;;;;;;;;;;20925402;28;20661;-71
2024/01/08 18:40:57;;;;;;;16.03;8.97;;;;;;;;;;20903904;28;20198;-71
2024/01/08 18:50:59;;;;;;;17.13;9.30;;;;;;;;;;20921045;28;20818;-69
2024/01/08 19:15:58;;;;;;;19.57;9.53;;;;;;;;;;21112717;27;21083;-73
2024/01/08 19:26:02;;;;;;;15.67;9.03;;;;;;;;;;21058777;28;20300;-72
2024/01/08 19:36:07;;;;;;;15.57;8.63;;;;;;;;;;21066854;28;20204;-74
2024/01/08 19:46:10;;;;;;;17.27;9.07;;;;;;;;;;21058627;28;20197;-74
2024/01/08 19:56:16;;;;;;;17.70;8.83;;;;;;;;;;21019731;28;20751;-74
2024/01/08 20:06:18;;;;;;;19.37;9.73;;;;;;;;;;21016532;28;20306;-70
2024/01/08 20:16:20;;;;;;;18.13;9.10;;;;;;;;;;21010765;28;20296;-70
2024/01/08 20:26:24;;;;;;;19.53;9.93;;;;;;;;;;20968621;28;20234;-72
2024/01/08 20:36:27;;;;;;;21.90;9.93;;;;;;;;;;20966475;28;20563;-73
2024/01/08 20:46:31;;;;;;;17.57;9.53;;;;;;;;;;20957966;28;20233;-72
2024/01/08 20:56:33;;;;;;;22.93;11.17;;;;;;;;;;20963731;28;20683;-70
2024/01/08 21:06:36;;;;;;;20.97;9.70;;;;;;;;;;20954226;28;20248;-70
2024/01/08 21:16:41;;;;;;;20.27;10.43;;;;;;;;;;20959461;28;20550;-70
2024/01/08 21:26:43;;;;;;;19.97;9.10;;;;;;;;;;20962788;28;20327;-70
2024/01/08 21:36:45;;;;;;;26.43;10.70;;;;;;;;;;20929484;28;20216;-72
2024/01/08 21:46:48;;;;;;;18.17;10.23;;;;;;;;;;20954271;28;20635;-70
2024/01/08 21:56:50;;;;;;;20.67;9.40;;;;;;;;;;20918667;28;20302;-71
2024/01/08 22:06:52;;;;;;;19.57;8.73;;;;;;;;;;20915372;28;20240;-70
2024/01/08 22:16:54;;;;;;;27.27;11.07;;;-0.30;58.10;;;;;;20914789;28;20227;-72
2024/01/08 22:26:56;;;;;;;26.27;10.93;;;;;;;;;;20934827;28;20291;-71
2024/01/08 22:36:59;;;;;;;45.57;16.50;;;;;;;;;;20914373;28;20205;-72
2024/01/08 22:47:02;;;;;;;22.40;10.37;;;;;;;;;;20913113;28;20244;-70
2024/01/08 22:57:04;;;;;;;19.33;9.37;;;;;;;;;;20912978;28;20220;-69
2024/01/08 23:07:06;;;;;;;19.20;9.83;;;;;;;;;;20912540;28;20268;-70
2024/01/08 23:17:09;;;;;;;16.57;9.67;;;;;;;;;;20914225;28;20231;-71
2024/01/08 23:27:11;;;;;;;14.83;7.77;;;;;;;;;;20915803;28;20291;-70
2024/01/08 23:37:13;;;;;;;18.33;8.47;;;;;;;;;;20927560;28;20240;-68
2024/01/08 23:47:15;;;;;;;16.87;7.97;;;;;;;;;;20933011;28;20227;-69
2024/01/08 23:57:17;;;;;;;16.57;8.33;;;;;;;;;;20967884;28;20213;-68
